sensor_id;sensor_type;location;lat;lon;timestamp;P1;durP1;ratioP1;P2;durP2;ratioP2
42140;SDS011;27809;51.864;5.646;2023-05-14T00:00:16;8.18;;;4.38;;
42140;SDS011;27809;51.864;5.646;2023-05-14T00:02:42;5.38;;;4.43;;
42140;SDS011;27809;51.864;5.646;2023-05-14T00:05:07;10.73;;;6.28;;
42140;SDS011;27809;51.864;5.646;2023-05-14T00:07:34;9.75;;;5.53;;
42140;SDS011;27809;51.864;5.646;2023-05-14T00:09:59;9.65;;;5.32;;
42140;SDS011;27809;51.864;5.646;2023-05-14T00:12:25;10.40;;;6.50;;
42140;SDS011;27809;51.864;5.646;2023-05-14T00:14:51;14.20;;;7.15;;
42140;SDS011;27809;51.864;5.646;2023-05-14T00:17:17;10.90;;;6.78;;
42140;SDS011;27809;51.864;5.646;2023-05-14T00:19:43;10.88;;;6.70;;
42140;SDS011;27809;51.864;5.646;2023-05-14T00:22:08;8.15;;;6.93;;
42140;SDS011;27809;51.864;5.646;2023-05-14T00:24:34;11.02;;;7.75;;
42140;SDS011;27809;51.864;5.646;2023-05-14T00:27:00;11.15;;;7.03;;
42140;SDS011;27809;51.864;5.646;2023-05-14T00:29:26;9.38;;;6.20;;
42140;SDS011;27809;51.864;5.646;2023-05-14T00:31:51;10.10;;;6.53;;
42140;SDS011;27809;51.864;5.646;2023-05-14T00:34:17;11.00;;;6.88;;
42140;SDS011;27809;51.864;5.646;2023-05-14T00:36:42;10.23;;;6.95;;
42140;SDS011;27809;51.864;5.646;2023-05-14T00:39:08;7.82;;;5.30;;
42140;SDS011;27809;51.864;5.646;2023-05-14T00:41:33;14.43;;;7.50;;
42140;SDS011;27809;51.864;5.646;2023-05-14T00:43:59;7.65;;;5.88;;
42140;SDS011;27809;51.864;5.646;2023-05-14T00:46:26;9.18;;;6.95;;
42140;SDS011;27809;51.864;5.646;2023-05-14T00:48:52;12.65;;;6.38;;
42140;SDS011;27809;51.864;5.646;2023-05-14T00:51:18;13.52;;;7.00;;
42140;SDS011;27809;51.864;5.646;2023-05-14T00:53:44;9.50;;;6.20;;
42140;SDS011;27809;51.864;5.646;2023-05-14T00:56:10;13.52;;;7.70;;
42140;SDS011;27809;51.864;5.646;2023-05-14T00:58:37;9.45;;;6.78;;
42140;SDS011;27809;51.864;5.646;2023-05-14T01:01:03;13.55;;;6.68;;
42140;SDS011;27809;51.864;5.646;2023-05-14T01:03:29;9.50;;;6.40;;
42140;SDS011;27809;51.864;5.646;2023-05-14T01:08:51;11.13;;;7.30;;
42140;SDS011;27809;51.864;5.646;2023-05-14T01:11:35;8.35;;;6.60;;
42140;SDS011;27809;51.864;5.646;2023-05-14T01:14:36;15.43;;;6.63;;
42140;SDS011;27809;51.864;5.646;2023-05-14T01:17:10;20.73;;;8.15;;
42140;SDS011;27809;51.864;5.646;2023-05-14T01:19:40;9.10;;;6.35;;
42140;SDS011;27809;51.864;5.646;2023-05-14T01:22:06;11.07;;;7.47;;
42140;SDS011;27809;51.864;5.646;2023-05-14T01:24:32;10.02;;;7.35;;
42140;SDS011;27809;51.864;5.646;2023-05-14T01:29:30;10.50;;;6.82;;
42140;SDS011;27809;51.864;5.646;2023-05-14T01:31:57;11.43;;;7.07;;
42140;SDS011;27809;51.864;5.646;2023-05-14T01:34:24;11.93;;;7.05;;
42140;SDS011;27809;51.864;5.646;2023-05-14T01:36:54;9.05;;;6.88;;
42140;SDS011;27809;51.864;5.646;2023-05-14T01:39:21;10.48;;;6.97;;
42140;SDS011;27809;51.864;5.646;2023-05-14T01:41:47;8.43;;;6.55;;
42140;SDS011;27809;51.864;5.646;2023-05-14T01:44:14;10.05;;;5.97;;
42140;SDS011;27809;51.864;5.646;2023-05-14T01:46:40;13.82;;;6.82;;
42140;SDS011;27809;51.864;5.646;2023-05-14T01:49:05;10.13;;;6.65;;
42140;SDS011;27809;51.864;5.646;2023-05-14T01:51:31;8.68;;;6.30;;
42140;SDS011;27809;51.864;5.646;2023-05-14T01:53:56;11.00;;;6.82;;
42140;SDS011;27809;51.864;5.646;2023-05-14T01:56:22;13.02;;;7.78;;
42140;SDS011;27809;51.864;5.646;2023-05-14T01:58:48;19.30;;;9.20;;
42140;SDS011;27809;51.864;5.646;2023-05-14T02:01:13;11.07;;;6.75;;
42140;SDS011;27809;51.864;5.646;2023-05-14T02:03:39;13.52;;;8.07;;
42140;SDS011;27809;51.864;5.646;2023-05-14T02:06:05;12.38;;;6.93;;
42140;SDS011;27809;51.864;5.646;2023-05-14T02:08:30;16.95;;;7.55;;
42140;SDS011;27809;51.864;5.646;2023-05-14T02:10:56;13.23;;;8.45;;
42140;SDS011;27809;51.864;5.646;2023-05-14T02:13:21;15.00;;;7.70;;
42140;SDS011;27809;51.864;5.646;2023-05-14T02:15:48;15.90;;;9.10;;
42140;SDS011;27809;51.864;5.646;2023-05-14T02:18:13;9.40;;;6.70;;
42140;SDS011;27809;51.864;5.646;2023-05-14T02:20:39;13.80;;;7.22;;
42140;SDS011;27809;51.864;5.646;2023-05-14T02:23:05;11.32;;;7.47;;
42140;SDS011;27809;51.864;5.646;2023-05-14T02:25:30;8.93;;;5.97;;
42140;SDS011;27809;51.864;5.646;2023-05-14T02:27:56;11.18;;;7.07;;
42140;SDS011;27809;51.864;5.646;2023-05-14T02:30:21;14.38;;;7.45;;
42140;SDS011;27809;51.864;5.646;2023-05-14T02:32:47;12.30;;;8.27;;
42140;SDS011;27809;51.864;5.646;2023-05-14T02:35:12;15.30;;;7.80;;
42140;SDS011;27809;51.864;5.646;2023-05-14T02:37:38;13.35;;;8.18;;
42140;SDS011;27809;51.864;5.646;2023-05-14T02:40:03;14.15;;;8.60;;
42140;SDS011;27809;51.864;5.646;2023-05-14T02:42:30;16.98;;;8.05;;
42140;SDS011;27809;51.864;5.646;2023-05-14T02:44:55;17.35;;;7.75;;
42140;SDS011;27809;51.864;5.646;2023-05-14T02:47:21;11.65;;;7.43;;
42140;SDS011;27809;51.864;5.646;2023-05-14T02:49:46;14.15;;;8.20;;
42140;SDS011;27809;51.864;5.646;2023-05-14T02:52:12;12.73;;;6.43;;
42140;SDS011;27809;51.864;5.646;2023-05-14T02:54:37;12.32;;;7.40;;
42140;SDS011;27809;51.864;5.646;2023-05-14T02:57:03;19.08;;;8.60;;
42140;SDS011;27809;51.864;5.646;2023-05-14T02:59:28;13.18;;;8.55;;
42140;SDS011;27809;51.864;5.646;2023-05-14T03:01:55;12.50;;;7.82;;
42140;SDS011;27809;51.864;5.646;2023-05-14T03:04:20;14.43;;;7.70;;
42140;SDS011;27809;51.864;5.646;2023-05-14T03:06:46;14.05;;;8.50;;
42140;SDS011;27809;51.864;5.646;2023-05-14T03:09:11;11.38;;;8.40;;
42140;SDS011;27809;51.864;5.646;2023-05-14T03:11:38;15.70;;;8.57;;
42140;SDS011;27809;51.864;5.646;2023-05-14T03:14:03;18.00;;;8.75;;
42140;SDS011;27809;51.864;5.646;2023-05-14T03:16:29;19.45;;;9.70;;
42140;SDS011;27809;51.864;5.646;2023-05-14T03:18:54;15.43;;;9.20;;
42140;SDS011;27809;51.864;5.646;2023-05-14T03:21:20;18.55;;;11.85;;
42140;SDS011;27809;51.864;5.646;2023-05-14T03:23:46;15.43;;;9.50;;
42140;SDS011;27809;51.864;5.646;2023-05-14T03:26:11;16.85;;;9.75;;
42140;SDS011;27809;51.864;5.646;2023-05-14T03:28:37;13.98;;;9.38;;
42140;SDS011;27809;51.864;5.646;2023-05-14T03:31:02;14.45;;;10.02;;
42140;SDS011;27809;51.864;5.646;2023-05-14T03:33:28;13.98;;;8.88;;
42140;SDS011;27809;51.864;5.646;2023-05-14T03:35:53;14.45;;;9.70;;
42140;SDS011;27809;51.864;5.646;2023-05-14T03:38:19;16.52;;;11.27;;
42140;SDS011;27809;51.864;5.646;2023-05-14T03:40:44;16.33;;;9.57;;
42140;SDS011;27809;51.864;5.646;2023-05-14T03:43:10;17.20;;;10.98;;
42140;SDS011;27809;51.864;5.646;2023-05-14T03:45:35;16.70;;;9.35;;
42140;SDS011;27809;51.864;5.646;2023-05-14T03:48:01;15.23;;;10.45;;
42140;SDS011;27809;51.864;5.646;2023-05-14T03:50:27;20.60;;;11.98;;
42140;SDS011;27809;51.864;5.646;2023-05-14T03:52:52;22.23;;;11.10;;
42140;SDS011;27809;51.864;5.646;2023-05-14T03:55:19;18.52;;;11.07;;
42140;SDS011;27809;51.864;5.646;2023-05-14T03:57:44;22.48;;;9.85;;
42140;SDS011;27809;51.864;5.646;2023-05-14T04:00:10;24.05;;;11.82;;
42140;SDS011;27809;51.864;5.646;2023-05-14T04:02:36;17.15;;;10.38;;
42140;SDS011;27809;51.864;5.646;2023-05-14T04:05:02;20.08;;;9.98;;
42140;SDS011;27809;51.864;5.646;2023-05-14T04:07:28;15.57;;;9.77;;
42140;SDS011;27809;51.864;5.646;2023-05-14T04:09:53;22.17;;;11.13;;
42140;SDS011;27809;51.864;5.646;2023-05-14T04:12:19;16.67;;;11.00;;
42140;SDS011;27809;51.864;5.646;2023-05-14T04:14:44;14.40;;;9.65;;
42140;SDS011;27809;51.864;5.646;2023-05-14T04:17:10;19.85;;;10.38;;
42140;SDS011;27809;51.864;5.646;2023-05-14T04:19:35;16.85;;;10.35;;
42140;SDS011;27809;51.864;5.646;2023-05-14T04:22:01;20.67;;;11.25;;
42140;SDS011;27809;51.864;5.646;2023-05-14T04:24:26;19.13;;;9.68;;
42140;SDS011;27809;51.864;5.646;2023-05-14T04:26:52;17.80;;;11.45;;
42140;SDS011;27809;51.864;5.646;2023-05-14T04:29:17;20.48;;;10.60;;
42140;SDS011;27809;51.864;5.646;2023-05-14T04:31:43;20.70;;;11.80;;
42140;SDS011;27809;51.864;5.646;2023-05-14T04:34:09;18.40;;;10.57;;
42140;SDS011;27809;51.864;5.646;2023-05-14T04:36:34;18.00;;;10.98;;
42140;SDS011;27809;51.864;5.646;2023-05-14T04:39:00;21.25;;;10.43;;
42140;SDS011;27809;51.864;5.646;2023-05-14T04:41:25;21.42;;;11.00;;
42140;SDS011;27809;51.864;5.646;2023-05-14T04:43:54;31.42;;;10.77;;
42140;SDS011;27809;51.864;5.646;2023-05-14T04:46:20;23.38;;;11.70;;
42140;SDS011;27809;51.864;5.646;2023-05-14T04:48:46;16.67;;;10.20;;
42140;SDS011;27809;51.864;5.646;2023-05-14T04:51:12;19.20;;;10.10;;
42140;SDS011;27809;51.864;5.646;2023-05-14T04:53:38;24.67;;;10.60;;
42140;SDS011;27809;51.864;5.646;2023-05-14T04:56:03;22.25;;;11.63;;
42140;SDS011;27809;51.864;5.646;2023-05-14T04:58:29;16.92;;;10.80;;
42140;SDS011;27809;51.864;5.646;2023-05-14T05:00:56;17.75;;;10.82;;
42140;SDS011;27809;51.864;5.646;2023-05-14T05:03:22;19.05;;;12.23;;
42140;SDS011;27809;51.864;5.646;2023-05-14T05:05:47;20.20;;;11.93;;
42140;SDS011;27809;51.864;5.646;2023-05-14T05:08:13;20.25;;;10.70;;
42140;SDS011;27809;51.864;5.646;2023-05-14T05:10:39;25.80;;;11.40;;
42140;SDS011;27809;51.864;5.646;2023-05-14T05:13:04;21.45;;;10.70;;
42140;SDS011;27809;51.864;5.646;2023-05-14T05:15:29;24.50;;;11.50;;
42140;SDS011;27809;51.864;5.646;2023-05-14T05:17:55;23.20;;;12.50;;
42140;SDS011;27809;51.864;5.646;2023-05-14T05:20:20;29.88;;;12.40;;
42140;SDS011;27809;51.864;5.646;2023-05-14T05:22:47;24.88;;;12.15;;
42140;SDS011;27809;51.864;5.646;2023-05-14T05:25:12;24.38;;;11.75;;
42140;SDS011;27809;51.864;5.646;2023-05-14T05:27:38;20.15;;;11.57;;
42140;SDS011;27809;51.864;5.646;2023-05-14T05:30:03;19.50;;;11.88;;
42140;SDS011;27809;51.864;5.646;2023-05-14T05:32:30;20.23;;;11.60;;
42140;SDS011;27809;51.864;5.646;2023-05-14T05:34:55;19.90;;;10.80;;
42140;SDS011;27809;51.864;5.646;2023-05-14T05:37:21;17.77;;;11.02;;
42140;SDS011;27809;51.864;5.646;2023-05-14T05:39:46;19.42;;;11.20;;
42140;SDS011;27809;51.864;5.646;2023-05-14T05:42:12;19.52;;;10.98;;
42140;SDS011;27809;51.864;5.646;2023-05-14T05:44:38;18.38;;;11.55;;
42140;SDS011;27809;51.864;5.646;2023-05-14T05:47:04;20.58;;;11.23;;
42140;SDS011;27809;51.864;5.646;2023-05-14T05:49:29;20.90;;;10.65;;
42140;SDS011;27809;51.864;5.646;2023-05-14T05:51:55;17.13;;;11.30;;
42140;SDS011;27809;51.864;5.646;2023-05-14T05:54:21;21.92;;;12.13;;
42140;SDS011;27809;51.864;5.646;2023-05-14T05:56:48;19.38;;;11.27;;
42140;SDS011;27809;51.864;5.646;2023-05-14T05:59:13;17.55;;;11.15;;
42140;SDS011;27809;51.864;5.646;2023-05-14T06:01:39;20.63;;;12.40;;
42140;SDS011;27809;51.864;5.646;2023-05-14T06:04:05;38.50;;;13.75;;
42140;SDS011;27809;51.864;5.646;2023-05-14T06:06:31;9.00;;;5.72;;
42140;SDS011;27809;51.864;5.646;2023-05-14T06:08:56;19.10;;;10.90;;
42140;SDS011;27809;51.864;5.646;2023-05-14T06:11:22;17.67;;;10.73;;
42140;SDS011;27809;51.864;5.646;2023-05-14T06:13:48;22.23;;;11.13;;
42140;SDS011;27809;51.864;5.646;2023-05-14T06:16:13;25.67;;;11.27;;
42140;SDS011;27809;51.864;5.646;2023-05-14T06:18:39;15.38;;;10.88;;
42140;SDS011;27809;51.864;5.646;2023-05-14T06:21:04;18.92;;;11.90;;
42140;SDS011;27809;51.864;5.646;2023-05-14T06:23:30;18.10;;;10.75;;
42140;SDS011;27809;51.864;5.646;2023-05-14T06:25:56;15.77;;;10.13;;
42140;SDS011;27809;51.864;5.646;2023-05-14T06:28:21;19.27;;;11.45;;
42140;SDS011;27809;51.864;5.646;2023-05-14T06:30:50;20.05;;;10.25;;
42140;SDS011;27809;51.864;5.646;2023-05-14T06:33:17;16.48;;;10.43;;
42140;SDS011;27809;51.864;5.646;2023-05-14T06:35:45;23.48;;;11.60;;
42140;SDS011;27809;51.864;5.646;2023-05-14T06:38:10;21.83;;;11.85;;
42140;SDS011;27809;51.864;5.646;2023-05-14T06:40:36;21.13;;;11.13;;
42140;SDS011;27809;51.864;5.646;2023-05-14T06:43:01;17.52;;;9.75;;
42140;SDS011;27809;51.864;5.646;2023-05-14T06:45:27;24.63;;;12.13;;
42140;SDS011;27809;51.864;5.646;2023-05-14T06:47:54;17.52;;;10.57;;
42140;SDS011;27809;51.864;5.646;2023-05-14T06:50:19;18.60;;;11.10;;
42140;SDS011;27809;51.864;5.646;2023-05-14T06:52:45;18.92;;;11.93;;
42140;SDS011;27809;51.864;5.646;2023-05-14T06:55:10;19.38;;;9.60;;
42140;SDS011;27809;51.864;5.646;2023-05-14T06:57:36;17.10;;;10.73;;
42140;SDS011;27809;51.864;5.646;2023-05-14T07:00:02;20.23;;;10.38;;
42140;SDS011;27809;51.864;5.646;2023-05-14T07:02:28;18.33;;;9.15;;
42140;SDS011;27809;51.864;5.646;2023-05-14T07:04:54;17.52;;;9.43;;
42140;SDS011;27809;51.864;5.646;2023-05-14T07:07:19;23.20;;;10.63;;
42140;SDS011;27809;51.864;5.646;2023-05-14T07:09:45;15.80;;;8.70;;
42140;SDS011;27809;51.864;5.646;2023-05-14T07:12:11;12.70;;;8.52;;
42140;SDS011;27809;51.864;5.646;2023-05-14T07:14:37;17.73;;;9.85;;
42140;SDS011;27809;51.864;5.646;2023-05-14T07:17:02;12.38;;;7.43;;
42140;SDS011;27809;51.864;5.646;2023-05-14T07:19:28;15.35;;;8.98;;
42140;SDS011;27809;51.864;5.646;2023-05-14T07:21:54;24.67;;;10.65;;
42140;SDS011;27809;51.864;5.646;2023-05-14T07:24:20;26.02;;;9.80;;
42140;SDS011;27809;51.864;5.646;2023-05-14T07:26:47;5.05;;;2.53;;
42140;SDS011;27809;51.864;5.646;2023-05-14T07:29:13;5.85;;;3.53;;
42140;SDS011;27809;51.864;5.646;2023-05-14T07:31:38;4.65;;;3.03;;
42140;SDS011;27809;51.864;5.646;2023-05-14T07:34:04;2.92;;;2.38;;
42140;SDS011;27809;51.864;5.646;2023-05-14T07:36:29;5.55;;;2.25;;
42140;SDS011;27809;51.864;5.646;2023-05-14T07:38:55;9.80;;;3.60;;
42140;SDS011;27809;51.864;5.646;2023-05-14T07:41:21;9.98;;;3.70;;
42140;SDS011;27809;51.864;5.646;2023-05-14T07:43:46;17.00;;;5.00;;
42140;SDS011;27809;51.864;5.646;2023-05-14T07:46:12;9.45;;;2.65;;
42140;SDS011;27809;51.864;5.646;2023-05-14T07:48:38;11.05;;;3.38;;
42140;SDS011;27809;51.864;5.646;2023-05-14T07:51:04;18.65;;;5.22;;
42140;SDS011;27809;51.864;5.646;2023-05-14T07:53:29;5.97;;;2.47;;
42140;SDS011;27809;51.864;5.646;2023-05-14T07:55:55;6.35;;;3.47;;
42140;SDS011;27809;51.864;5.646;2023-05-14T07:58:21;5.78;;;3.78;;
42140;SDS011;27809;51.864;5.646;2023-05-14T08:00:47;5.90;;;2.22;;
42140;SDS011;27809;51.864;5.646;2023-05-14T08:03:13;3.80;;;2.33;;
42140;SDS011;27809;51.864;5.646;2023-05-14T08:05:38;4.50;;;2.38;;
42140;SDS011;27809;51.864;5.646;2023-05-14T08:08:04;9.20;;;2.70;;
42140;SDS011;27809;51.864;5.646;2023-05-14T08:10:29;6.25;;;2.92;;
42140;SDS011;27809;51.864;5.646;2023-05-14T08:12:55;4.78;;;3.15;;
42140;SDS011;27809;51.864;5.646;2023-05-14T08:15:20;3.33;;;2.00;;
42140;SDS011;27809;51.864;5.646;2023-05-14T08:17:46;6.65;;;2.22;;
42140;SDS011;27809;51.864;5.646;2023-05-14T08:20:12;9.43;;;3.50;;
42140;SDS011;27809;51.864;5.646;2023-05-14T08:22:38;11.68;;;4.57;;
42140;SDS011;27809;51.864;5.646;2023-05-14T08:25:04;8.77;;;2.75;;
42140;SDS011;27809;51.864;5.646;2023-05-14T08:27:30;21.55;;;4.68;;
42140;SDS011;27809;51.864;5.646;2023-05-14T08:29:56;16.77;;;3.78;;
42140;SDS011;27809;51.864;5.646;2023-05-14T08:32:21;7.72;;;3.60;;
42140;SDS011;27809;51.864;5.646;2023-05-14T08:34:47;4.93;;;2.33;;
42140;SDS011;27809;51.864;5.646;2023-05-14T08:37:12;7.82;;;3.53;;
42140;SDS011;27809;51.864;5.646;2023-05-14T08:39:38;6.97;;;2.63;;
42140;SDS011;27809;51.864;5.646;2023-05-14T08:42:04;8.75;;;2.83;;
42140;SDS011;27809;51.864;5.646;2023-05-14T08:44:47;6.10;;;2.50;;
42140;SDS011;27809;51.864;5.646;2023-05-14T08:47:16;7.15;;;3.22;;
42140;SDS011;27809;51.864;5.646;2023-05-14T08:49:45;6.55;;;2.80;;
42140;SDS011;27809;51.864;5.646;2023-05-14T08:52:13;5.85;;;2.20;;
42140;SDS011;27809;51.864;5.646;2023-05-14T08:54:42;6.18;;;3.47;;
42140;SDS011;27809;51.864;5.646;2023-05-14T08:57:09;7.50;;;4.15;;
42140;SDS011;27809;51.864;5.646;2023-05-14T08:59:35;7.80;;;2.72;;
42140;SDS011;27809;51.864;5.646;2023-05-14T09:02:01;8.68;;;4.55;;
42140;SDS011;27809;51.864;5.646;2023-05-14T09:04:30;8.25;;;4.88;;
42140;SDS011;27809;51.864;5.646;2023-05-14T09:06:56;8.95;;;5.03;;
42140;SDS011;27809;51.864;5.646;2023-05-14T09:09:25;8.10;;;4.60;;
42140;SDS011;27809;51.864;5.646;2023-05-14T09:11:52;4.15;;;1.88;;
42140;SDS011;27809;51.864;5.646;2023-05-14T09:14:18;5.18;;;2.42;;
42140;SDS011;27809;51.864;5.646;2023-05-14T09:16:45;5.45;;;1.90;;
42140;SDS011;27809;51.864;5.646;2023-05-14T09:19:13;12.43;;;5.85;;
42140;SDS011;27809;51.864;5.646;2023-05-14T09:21:39;5.28;;;2.60;;
42140;SDS011;27809;51.864;5.646;2023-05-14T09:24:05;7.85;;;4.35;;
42140;SDS011;27809;51.864;5.646;2023-05-14T09:26:32;7.18;;;3.22;;
42140;SDS011;27809;51.864;5.646;2023-05-14T09:28:59;5.95;;;2.78;;
42140;SDS011;27809;51.864;5.646;2023-05-14T09:31:28;7.05;;;2.35;;
42140;SDS011;27809;51.864;5.646;2023-05-14T09:33:55;3.58;;;1.88;;
42140;SDS011;27809;51.864;5.646;2023-05-14T09:36:21;6.25;;;2.78;;
42140;SDS011;27809;51.864;5.646;2023-05-14T09:38:49;4.50;;;1.65;;
42140;SDS011;27809;51.864;5.646;2023-05-14T09:41:14;3.08;;;1.90;;
42140;SDS011;27809;51.864;5.646;2023-05-14T09:43:40;3.40;;;1.88;;
42140;SDS011;27809;51.864;5.646;2023-05-14T09:46:06;6.43;;;1.95;;
42140;SDS011;27809;51.864;5.646;2023-05-14T09:48:31;10.35;;;2.78;;
42140;SDS011;27809;51.864;5.646;2023-05-14T09:50:57;7.43;;;3.30;;
42140;SDS011;27809;51.864;5.646;2023-05-14T09:53:23;7.78;;;4.75;;
42140;SDS011;27809;51.864;5.646;2023-05-14T09:55:48;5.95;;;1.45;;
42140;SDS011;27809;51.864;5.646;2023-05-14T09:58:14;5.03;;;1.70;;
42140;SDS011;27809;51.864;5.646;2023-05-14T10:00:46;4.40;;;1.60;;
42140;SDS011;27809;51.864;5.646;2023-05-14T10:03:12;5.88;;;2.33;;
42140;SDS011;27809;51.864;5.646;2023-05-14T10:05:39;5.00;;;2.08;;
42140;SDS011;27809;51.864;5.646;2023-05-14T10:08:12;5.43;;;3.67;;
42140;SDS011;27809;51.864;5.646;2023-05-14T10:10:45;4.40;;;3.15;;
42140;SDS011;27809;51.864;5.646;2023-05-14T10:13:14;5.25;;;2.85;;
42140;SDS011;27809;51.864;5.646;2023-05-14T10:15:51;7.25;;;3.67;;
42140;SDS011;27809;51.864;5.646;2023-05-14T10:18:41;2.92;;;1.55;;
42140;SDS011;27809;51.864;5.646;2023-05-14T10:21:10;5.45;;;2.80;;
42140;SDS011;27809;51.864;5.646;2023-05-14T10:23:38;5.82;;;3.08;;
42140;SDS011;27809;51.864;5.646;2023-05-14T10:26:05;5.38;;;2.22;;
42140;SDS011;27809;51.864;5.646;2023-05-14T10:28:31;6.70;;;3.42;;
42140;SDS011;27809;51.864;5.646;2023-05-14T10:31:00;3.38;;;2.25;;
42140;SDS011;27809;51.864;5.646;2023-05-14T10:33:26;5.05;;;3.08;;
42140;SDS011;27809;51.864;5.646;2023-05-14T10:38:34;5.03;;;2.58;;
42140;SDS011;27809;51.864;5.646;2023-05-14T10:43:27;3.33;;;2.15;;
42140;SDS011;27809;51.864;5.646;2023-05-14T10:45:54;4.13;;;1.38;;
42140;SDS011;27809;51.864;5.646;2023-05-14T10:48:21;3.47;;;1.60;;
42140;SDS011;27809;51.864;5.646;2023-05-14T10:50:47;5.93;;;2.35;;
42140;SDS011;27809;51.864;5.646;2023-05-14T10:53:13;5.53;;;1.10;;
42140;SDS011;27809;51.864;5.646;2023-05-14T10:55:40;5.40;;;2.20;;
42140;SDS011;27809;51.864;5.646;2023-05-14T10:58:06;4.45;;;1.15;;
42140;SDS011;27809;51.864;5.646;2023-05-14T11:00:36;8.90;;;1.90;;
42140;SDS011;27809;51.864;5.646;2023-05-14T11:03:02;3.05;;;1.10;;
42140;SDS011;27809;51.864;5.646;2023-05-14T11:05:29;4.78;;;2.78;;
42140;SDS011;27809;51.864;5.646;2023-05-14T11:07:56;8.10;;;1.73;;
42140;SDS011;27809;51.864;5.646;2023-05-14T11:10:22;5.82;;;2.05;;
42140;SDS011;27809;51.864;5.646;2023-05-14T11:12:53;6.57;;;1.50;;
42140;SDS011;27809;51.864;5.646;2023-05-14T11:15:21;3.45;;;1.70;;
42140;SDS011;27809;51.864;5.646;2023-05-14T11:17:49;5.20;;;2.75;;
42140;SDS011;27809;51.864;5.646;2023-05-14T11:20:15;3.88;;;1.27;;
42140;SDS011;27809;51.864;5.646;2023-05-14T11:22:42;4.03;;;1.25;;
42140;SDS011;27809;51.864;5.646;2023-05-14T11:25:08;3.65;;;0.93;;
42140;SDS011;27809;51.864;5.646;2023-05-14T11:27:36;3.55;;;1.48;;
42140;SDS011;27809;51.864;5.646;2023-05-14T11:30:02;3.53;;;1.38;;
42140;SDS011;27809;51.864;5.646;2023-05-14T11:32:30;2.65;;;0.95;;
42140;SDS011;27809;51.864;5.646;2023-05-14T11:34:56;7.97;;;1.25;;
42140;SDS011;27809;51.864;5.646;2023-05-14T11:37:22;3.28;;;1.38;;
42140;SDS011;27809;51.864;5.646;2023-05-14T11:39:51;3.42;;;1.52;;
42140;SDS011;27809;51.864;5.646;2023-05-14T11:42:18;5.45;;;1.70;;
42140;SDS011;27809;51.864;5.646;2023-05-14T11:44:48;1.67;;;0.98;;
42140;SDS011;27809;51.864;5.646;2023-05-14T11:47:16;1.88;;;0.95;;
42140;SDS011;27809;51.864;5.646;2023-05-14T11:49:42;3.33;;;1.15;;
42140;SDS011;27809;51.864;5.646;2023-05-14T11:52:08;3.55;;;0.90;;
42140;SDS011;27809;51.864;5.646;2023-05-14T11:57:15;2.42;;;0.82;;
42140;SDS011;27809;51.864;5.646;2023-05-14T11:59:43;2.40;;;0.80;;
42140;SDS011;27809;51.864;5.646;2023-05-14T12:02:09;2.50;;;1.40;;
42140;SDS011;27809;51.864;5.646;2023-05-14T12:04:36;2.25;;;0.70;;
42140;SDS011;27809;51.864;5.646;2023-05-14T12:07:12;4.72;;;1.15;;
42140;SDS011;27809;51.864;5.646;2023-05-14T12:09:43;3.38;;;0.73;;
42140;SDS011;27809;51.864;5.646;2023-05-14T12:12:13;2.05;;;0.98;;
42140;SDS011;27809;51.864;5.646;2023-05-14T12:14:41;2.63;;;1.15;;
42140;SDS011;27809;51.864;5.646;2023-05-14T12:17:14;1.90;;;0.90;;
42140;SDS011;27809;51.864;5.646;2023-05-14T12:19:44;3.92;;;1.30;;
42140;SDS011;27809;51.864;5.646;2023-05-14T12:22:19;4.63;;;1.45;;
42140;SDS011;27809;51.864;5.646;2023-05-14T12:24:55;7.32;;;0.88;;
42140;SDS011;27809;51.864;5.646;2023-05-14T12:27:22;2.83;;;1.17;;
42140;SDS011;27809;51.864;5.646;2023-05-14T12:29:56;5.00;;;1.05;;
42140;SDS011;27809;51.864;5.646;2023-05-14T12:32:27;1.95;;;1.00;;
42140;SDS011;27809;51.864;5.646;2023-05-14T12:34:55;3.42;;;0.98;;
42140;SDS011;27809;51.864;5.646;2023-05-14T12:37:20;2.58;;;0.90;;
42140;SDS011;27809;51.864;5.646;2023-05-14T12:39:46;2.78;;;1.30;;
42140;SDS011;27809;51.864;5.646;2023-05-14T12:42:13;6.03;;;1.13;;
42140;SDS011;27809;51.864;5.646;2023-05-14T12:44:39;5.72;;;0.95;;
42140;SDS011;27809;51.864;5.646;2023-05-14T12:47:05;5.13;;;1.38;;
42140;SDS011;27809;51.864;5.646;2023-05-14T12:49:30;4.28;;;2.13;;
42140;SDS011;27809;51.864;5.646;2023-05-14T12:51:56;2.60;;;0.90;;
42140;SDS011;27809;51.864;5.646;2023-05-14T12:54:22;5.55;;;1.65;;
42140;SDS011;27809;51.864;5.646;2023-05-14T12:56:47;3.22;;;1.20;;
42140;SDS011;27809;51.864;5.646;2023-05-14T12:59:13;4.22;;;1.08;;
42140;SDS011;27809;51.864;5.646;2023-05-14T13:01:39;6.82;;;1.98;;
42140;SDS011;27809;51.864;5.646;2023-05-14T13:04:05;3.83;;;1.02;;
42140;SDS011;27809;51.864;5.646;2023-05-14T13:06:31;4.88;;;1.80;;
42140;SDS011;27809;51.864;5.646;2023-05-14T13:08:57;6.75;;;1.35;;
42140;SDS011;27809;51.864;5.646;2023-05-14T13:11:25;6.28;;;1.85;;
42140;SDS011;27809;51.864;5.646;2023-05-14T13:13:53;8.85;;;1.60;;
42140;SDS011;27809;51.864;5.646;2023-05-14T13:16:19;3.70;;;1.45;;
42140;SDS011;27809;51.864;5.646;2023-05-14T13:18:45;3.00;;;1.30;;
42140;SDS011;27809;51.864;5.646;2023-05-14T13:21:10;4.38;;;1.70;;
42140;SDS011;27809;51.864;5.646;2023-05-14T13:23:36;4.18;;;1.10;;
42140;SDS011;27809;51.864;5.646;2023-05-14T13:26:02;5.50;;;1.98;;
42140;SDS011;27809;51.864;5.646;2023-05-14T13:28:28;2.80;;;0.85;;
42140;SDS011;27809;51.864;5.646;2023-05-14T13:31:06;2.75;;;1.27;;
42140;SDS011;27809;51.864;5.646;2023-05-14T13:36:02;3.58;;;1.33;;
42140;SDS011;27809;51.864;5.646;2023-05-14T13:38:28;7.97;;;1.33;;
42140;SDS011;27809;51.864;5.646;2023-05-14T13:40:53;3.47;;;2.13;;
42140;SDS011;27809;51.864;5.646;2023-05-14T13:43:21;5.13;;;1.55;;
42140;SDS011;27809;51.864;5.646;2023-05-14T13:45:47;3.53;;;1.63;;
42140;SDS011;27809;51.864;5.646;2023-05-14T13:48:13;4.10;;;2.45;;
42140;SDS011;27809;51.864;5.646;2023-05-14T13:50:39;5.75;;;2.10;;
42140;SDS011;27809;51.864;5.646;2023-05-14T13:53:05;6.80;;;2.38;;
42140;SDS011;27809;51.864;5.646;2023-05-14T13:55:30;8.10;;;2.17;;
42140;SDS011;27809;51.864;5.646;2023-05-14T13:57:56;4.35;;;1.55;;
42140;SDS011;27809;51.864;5.646;2023-05-14T14:00:23;2.85;;;1.40;;
42140;SDS011;27809;51.864;5.646;2023-05-14T14:02:48;6.45;;;1.83;;
42140;SDS011;27809;51.864;5.646;2023-05-14T14:05:14;5.93;;;2.13;;
42140;SDS011;27809;51.864;5.646;2023-05-14T14:07:39;9.40;;;1.80;;
42140;SDS011;27809;51.864;5.646;2023-05-14T14:10:05;3.47;;;2.22;;
42140;SDS011;27809;51.864;5.646;2023-05-14T14:12:32;2.42;;;1.45;;
42140;SDS011;27809;51.864;5.646;2023-05-14T14:14:57;5.78;;;1.58;;
42140;SDS011;27809;51.864;5.646;2023-05-14T14:17:23;4.25;;;1.40;;
42140;SDS011;27809;51.864;5.646;2023-05-14T14:19:48;1.83;;;0.95;;
42140;SDS011;27809;51.864;5.646;2023-05-14T14:22:14;6.95;;;1.08;;
42140;SDS011;27809;51.864;5.646;2023-05-14T14:24:41;3.97;;;1.35;;
42140;SDS011;27809;51.864;5.646;2023-05-14T14:27:07;3.58;;;1.10;;
42140;SDS011;27809;51.864;5.646;2023-05-14T14:29:32;3.67;;;1.80;;
42140;SDS011;27809;51.864;5.646;2023-05-14T14:31:58;2.35;;;1.50;;
42140;SDS011;27809;51.864;5.646;2023-05-14T14:34:24;7.43;;;1.33;;
42140;SDS011;27809;51.864;5.646;2023-05-14T14:36:49;3.63;;;1.35;;
42140;SDS011;27809;51.864;5.646;2023-05-14T14:39:15;4.30;;;1.88;;
42140;SDS011;27809;51.864;5.646;2023-05-14T14:41:40;4.22;;;2.15;;
42140;SDS011;27809;51.864;5.646;2023-05-14T14:44:06;5.70;;;1.95;;
42140;SDS011;27809;51.864;5.646;2023-05-14T14:46:31;3.50;;;1.60;;
42140;SDS011;27809;51.864;5.646;2023-05-14T14:48:57;5.63;;;1.95;;